Terminal Aerodrome Forecast
Issued by NWS Denver/Boulder, CO

Home | Current Version | Previous Version | Text Only | Print | Product List | Glossary On
Versions: 1 2 3 4 5 6 7 8 9 10 11 12 13 14 15 16 17 18 19 20 21 22 23 24 25 26 27 28 29 30 31 32 33 34 35 36 37 38 39 40 41 42 43 44 45 46 47 48 49 50
000
FTUS45 KBOU 231346 AAB
TAFDEN
TAF AMD
KDEN 231346Z 2314/2418 08010KT P6SM VCSH FEW020 BKN070
      TEMPO 2314/2315 -SN
     FM231600 02014G22KT P6SM SCT050 SCT070 BKN100
     FM231800 35020G34KT P6SM VCSH SCT060 BKN100
     FM240100 30013KT P6SM SCT090 BKN120
     FM240600 27010KT P6SM SCT100 BKN150
     FM240900 25011KT P6SM SCT100 BKN150
     FM241600 33014G22KT P6SM SCT080 BKN120=

USA.gov is the U.S. government's official web portal to all federal, state and local government web resources and services.